Villajoyosa, Spain
Current Conditions -  °F | °C
As of 4:30 AM on Thursday 23 Oct 2014 (Local Time) from LEAL Reporting Station
Clear Clear  
Wind Chill: 61°   Ceiling: Unl
Heat Index: 61°   Visibility: 6mi
Dew Point: 52°   Wind: 7mph
Humidity: 72%   Direction: 290°WNW
Pressure: 30.18"   Gusts: NA
Location:  38.51°N, 0.23°W
Report Text: LEAL 230230Z 29006KT CAVOK 16/11 Q1022 NOSIG
Loading
Personal Weather Stations






























Interactive Weather Map
Tropical Storm Tracking
New forecast layout! Learn more

10-Day Weather Forecast

Advertisements
Track Severe Weather on mobile